Time;durP1;ratioP1;P1;durP2;ratioP2;P2;SDS_P1;SDS_P2;PMS_P1;PMS_P2;Temp;Humidity;BMP_temperature;BMP_pressure;BME280_temperature;BME280_humidity;BME280_pressure;Samples;Min_cycle;Max_cycle;Signal;HPM_P1;HPM_P2
2022/08/22 00:00:58;;;;;;;;;13.00;13.00;;;;;24.53;54.68;98262.59;6261538;27;96735;-61
2022/08/22 00:04:14;;;;;;;;;37.20;33.60;;;;;24.52;54.73;98250.75;6248454;27;98440;-60
2022/08/22 00:07:29;;;;;;;;;24.50;24.50;;;;;24.53;54.50;98248.81;6262857;27;96729;-62
2022/08/22 00:10:48;;;;;;;;;33.20;32.00;;;;;24.51;54.88;98249.13;6250621;27;96504;-62
2022/08/22 00:14:00;;;;;;;;;32.00;31.00;;;;;24.53;54.90;98251.56;6261180;27;97394;-57
2022/08/22 00:17:19;;;;;;;;;27.00;26.40;;;;;24.52;54.69;98253.53;6262794;27;97433;-61
2022/08/22 00:20:28;;;;;;;;;20.40;20.20;;;;;24.53;54.93;98254.31;6244298;27;98038;-59
2022/08/22 00:23:42;;;;;;;;;28.00;28.00;;;;;24.54;55.12;98244.91;6278664;27;97465;-62
2022/08/22 00:26:50;;;;;;;;;28.20;28.20;;;;;24.54;54.99;98247.66;6256696;27;97208;-60
2022/08/22 00:30:00;;;;;;;;;15.20;15.20;;;;;24.54;55.11;98255.94;6252268;27;97650;-60
2022/08/22 00:33:18;;;;;;;;;18.75;18.25;;;;;24.55;55.00;98249.28;6260080;27;98523;-58
2022/08/22 00:36:28;;;;;;;;;11.40;11.40;;;;;24.27;54.99;98207.53;6251291;27;96634;-59
2022/08/22 00:39:42;;;;;;;;;25.40;25.40;;;;;24.55;54.94;98244.59;6244070;27;96562;-62
2022/08/22 00:43:03;;;;;;;;;26.80;26.00;;;;;24.55;55.28;98236.31;6245789;27;97882;-58
2022/08/22 00:46:26;;;;;;;;;26.20;25.80;;;;;24.57;55.36;98227.72;6245313;27;97090;-60
2022/08/22 00:49:59;;;;;;;;;25.40;25.40;;;;;24.57;55.25;98230.47;6246641;27;96856;-61
2022/08/22 00:53:31;;;;;;;;;26.80;26.00;;;;;24.61;55.16;98234.19;6246684;27;97617;-60
2022/08/22 00:57:02;;;;;;;;;27.00;26.40;;;;;24.64;55.53;98224.44;6254970;27;97412;-60
2022/08/22 01:00:14;;;;;;;;;15.60;14.80;;;;;24.66;55.56;98223.00;6254124;27;97413;-59
2022/08/22 01:03:53;;;;;;;;;23.50;23.50;;;;;24.68;55.46;98220.69;6253060;27;97840;-62
2022/08/22 01:07:11;;;;;;;;;20.00;20.00;;;;;24.71;55.76;98219.25;6211864;27;97406;-60
2022/08/22 01:10:36;;;;;;;;;23.00;22.00;;;;;24.72;55.45;98229.13;6262286;27;97419;-63
2022/08/22 01:13:58;;;;;;;;;20.00;20.00;;;;;24.73;55.39;98236.28;6250004;27;97569;-59
2022/08/22 01:17:31;;;;;;;;;24.25;24.25;;;;;24.56;55.60;98204.06;6261309;27;97733;-62
2022/08/22 01:21:20;;;;;;;;;19.80;19.40;;;;;24.74;55.39;98224.91;6244222;27;97797;-60
2022/08/22 01:25:21;;;;;;;;;22.00;22.00;;;;;24.73;55.49;98225.25;6240883;27;97456;-63
2022/08/22 01:29:13;;;;;;;;;24.00;23.00;;;;;24.75;55.35;98228.47;6197387;27;97708;-61
2022/08/22 01:32:50;;;;;;;;;31.00;30.00;;;;;24.74;55.47;98224.09;6232077;27;97177;-57
2022/08/22 01:36:40;;;;;;;;;22.00;21.20;;;;;24.73;55.56;98225.25;6240126;28;97011;-60
2022/08/22 01:40:08;;;;;;;;;28.00;27.00;;;;;24.74;55.51;98233.16;6233547;27;97270;-61
2022/08/22 01:43:21;;;;;;;;;26.50;25.75;;;;;24.74;55.58;98232.34;6240073;27;97940;-61
2022/08/22 01:46:54;;;;;;;;;20.20;20.00;;;;;24.75;55.71;98234.78;6246955;27;97690;-61
2022/08/22 01:50:02;;;;;;;;;25.20;24.00;;;;;24.74;55.62;98238.69;6258874;27;96946;-59
2022/08/22 01:53:15;;;;;;;;;18.20;18.20;;;;;24.76;55.70;98239.19;6244406;27;99483;-60
2022/08/22 01:56:20;;;;;;;;;23.40;23.00;;;;;24.77;55.79;98226.19;6252639;27;100095;-62
2022/08/22 01:59:32;;;;;;;;;19.00;18.80;;;;;24.75;55.66;98232.03;6251667;27;97981;-61
2022/08/22 02:02:59;;;;;;;;;26.60;26.60;;;;;24.62;55.47;98208.25;6254827;27;97240;-58
2022/08/22 02:06:07;;;;;;;;;22.50;22.50;;;;;24.64;55.66;98214.22;6263375;27;96754;-59
2022/08/22 02:09:31;;;;;;;;;28.00;27.40;;;;;24.73;55.75;98228.00;6254199;27;97252;-60
2022/08/22 02:12:42;;;;;;;;;23.00;22.40;;;;;24.70;55.57;98232.22;6254734;27;96657;-61
2022/08/22 02:15:53;;;;;;;;;24.00;24.00;;;;;24.73;55.82;98233.53;6250611;27;97501;-60
2022/08/22 02:19:10;;;;;;;;;23.60;23.20;;;;;24.69;55.89;98225.06;6248299;27;96961;-62
2022/08/22 02:22:29;;;;;;;;;33.00;32.00;;;;;24.72;55.80;98220.88;6262145;27;96825;-59
2022/08/22 02:25:48;;;;;;;;;29.50;28.00;;;;;24.70;56.21;98226.69;6249488;27;96693;-62
2022/08/22 02:28:58;;;;;;;;;23.40;22.80;;;;;24.71;56.00;98213.72;6241329;27;97861;-60
2022/08/22 02:32:10;;;;;;;;;33.00;32.00;;;;;24.72;56.13;98218.91;6243681;27;97446;-61
2022/08/22 02:35:24;;;;;;;;;34.00;32.00;;;;;24.74;56.01;98222.13;6241440;27;97160;-59
2022/08/22 02:38:35;;;;;;;;;27.80;26.00;;;;;24.72;55.96;98223.63;6241156;27;96680;-65
2022/08/22 02:41:52;;;;;;;;;30.00;29.00;;;;;24.75;56.43;98232.03;6248864;27;97659;-62
2022/08/22 02:45:05;;;;;;;;;41.33;36.00;;;;;24.76;56.26;98224.56;6249953;27;99962;-62
2022/08/22 02:48:20;;;;;;;;;22.60;21.60;;;;;24.71;56.20;98230.28;6252111;27;97577;-62
2022/08/22 02:51:39;;;;;;;;;27.00;26.00;;;;;24.75;56.18;98234.78;6261479;27;97494;-60
2022/08/22 02:54:53;;;;;;;;;30.00;30.00;;;;;24.63;56.13;98217.34;6260051;27;96923;-61
2022/08/22 02:58:11;;;;;;;;;33.00;30.40;;;;;24.76;56.20;98238.34;6260893;27;97217;-59
2022/08/22 03:01:35;;;;;;;;;35.50;33.00;;;;;24.75;56.14;98222.94;6257347;27;98098;-62
2022/08/22 03:04:51;;;;;;;;;33.00;31.60;;;;;24.76;56.30;98225.38;6264401;27;97004;-67
2022/08/22 03:08:02;;;;;;;;;26.00;25.00;;;;;24.76;56.26;98228.16;6245405;27;96994;-59
2022/08/22 03:11:16;;;;;;;;;20.00;19.40;;;;;24.76;56.24;98228.16;6238347;27;97460;-60
2022/08/22 03:14:29;;;;;;;;;33.33;32.00;;;;;24.39;56.37;98155.31;6247613;27;97604;-61
2022/08/22 03:17:40;;;;;;;;;30.00;29.00;;;;;24.75;56.61;98215.50;6243562;27;96880;-57
2022/08/22 03:20:49;;;;;;;;;31.00;30.00;;;;;24.84;56.12;98226.47;6244940;27;97218;-60
2022/08/22 03:23:58;;;;;;;;;33.20;31.80;;;;;24.87;56.10;98234.94;6238477;27;97432;-59
2022/08/22 03:27:09;;;;;;;;;33.00;31.00;;;;;24.89;56.15;98234.59;6237541;27;97500;-59
2022/08/22 03:30:23;;;;;;;;;32.00;30.40;;;;;24.90;55.99;98237.03;6259661;27;97374;-58
2022/08/22 03:33:30;;;;;;;;;29.40;29.40;;;;;24.92;56.14;98234.75;6245499;27;97362;-60
2022/08/22 03:36:35;;;;;;;;;30.75;29.75;;;;;24.94;56.03;98239.94;6250590;27;97662;-59
2022/08/22 03:39:54;;;;;;;;;34.60;32.60;;;;;24.95;56.01;98244.31;6248808;27;97200;-61
2022/08/22 03:43:31;;;;;;;;;32.00;30.00;;;;;24.97;55.90;98242.03;6240705;27;97235;-61
2022/08/22 03:47:18;;;;;;;;;30.60;29.60;;;;;24.97;56.08;98233.78;6254800;27;97494;-59
2022/08/22 03:51:08;;;;;;;;;29.60;29.60;;;;;24.99;56.14;98237.00;6241750;27;97054;-60
2022/08/22 03:54:36;;;;;;;;;32.40;30.60;;;;;25.02;56.19;98247.38;6207732;27;97340;-65
2022/08/22 03:58:04;;;;;;;;;30.20;29.80;;;;;25.04;55.98;98247.84;6254362;27;97499;-61
2022/08/22 04:01:33;;;;;;;;;30.00;29.00;;;;;25.06;55.87;98251.09;6254392;27;97406;-60
2022/08/22 04:05:07;;;;;;;;;37.50;34.50;;;;;25.06;56.22;98250.28;6223698;27;97634;-61
2022/08/22 04:08:44;;;;;;;;;29.00;29.00;;;;;24.92;55.98;98225.69;6238957;27;97279;-61
2022/08/22 04:12:24;;;;;;;;;37.00;33.80;;;;;25.08;56.05;98247.97;6239263;27;97212;-59
2022/08/22 04:16:04;;;;;;;;;40.60;36.00;;;;;25.10;56.02;98257.56;6224695;27;97870;-60
2022/08/22 04:19:32;;;;;;;;;33.00;30.80;;;;;25.12;56.09;98252.50;6237457;27;97480;-60
2022/08/22 04:23:08;;;;;;;;;37.80;33.20;;;;;25.12;55.98;98241.47;6237594;27;97475;-64
2022/08/22 04:26:17;;;;;;;;;20.80;20.20;;;;;24.96;55.94;98224.69;6236949;27;96965;-61
2022/08/22 04:29:27;;;;;;;;;36.50;32.75;;;;;25.16;55.81;98255.41;6244966;27;97146;-59
2022/08/22 04:32:36;;;;;;;;;41.50;36.00;;;;;25.16;55.97;98255.41;6242060;27;96952;-61
2022/08/22 04:35:44;;;;;;;;;35.50;33.00;;;;;25.19;56.04;98252.78;6241162;27;96620;-59
2022/08/22 04:38:56;;;;;;;;;37.60;34.20;;;;;25.20;55.92;98256.38;6241096;27;98309;-60
2022/08/22 04:42:05;;;;;;;;;28.25;27.25;;;;;25.23;56.00;98261.22;6236955;27;97261;-60
2022/08/22 04:45:35;;;;;;;;;30.60;29.40;;;;;25.23;56.06;98267.53;6237804;27;97415;-60
2022/08/22 04:48:44;;;;;;;;;33.00;30.25;;;;;25.25;56.07;98268.03;6237093;27;97339;-59
2022/08/22 04:51:53;;;;;;;;;30.40;29.20;;;;;25.28;56.08;98272.06;6234429;27;97558;-60
2022/08/22 04:55:07;;;;;;;;;30.00;27.00;;;;;25.21;56.05;98264.31;6233747;27;97494;-60
2022/08/22 04:58:26;;;;;;;;;30.75;29.50;;;;;25.28;56.15;98270.09;6233025;27;98123;-55
2022/08/22 05:01:39;;;;;;;;;37.75;33.25;;;;;25.30;56.12;98273.34;6234604;27;97168;-60
2022/08/22 05:04:47;;;;;;;;;27.50;25.50;;;;;25.30;56.26;98267.84;6236796;27;97459;-61
2022/08/22 05:07:55;;;;;;;;;28.00;27.00;;;;;25.32;56.29;98278.53;6250429;27;97818;-62
2022/08/22 05:11:03;;;;;;;;;28.25;28.00;;;;;25.34;56.20;98279.81;6235075;27;97497;-59
2022/08/22 05:14:15;;;;;;;;;26.60;25.20;;;;;25.35;56.20;98277.88;6237234;27;97494;-61
2022/08/22 05:17:23;;;;;;;;;31.60;30.00;;;;;25.35;56.32;98275.94;6234722;27;97418;-61
2022/08/22 05:20:29;;;;;;;;;41.00;36.00;;;;;25.36;56.31;98291.31;6267183;27;97891;-62
2022/08/22 05:23:37;;;;;;;;;24.00;23.00;;;;;25.38;56.44;98293.75;6250300;27;96800;-63
2022/08/22 05:26:47;;;;;;;;;32.40;31.20;;;;;25.39;56.30;98292.63;6235002;27;99521;-66
2022/08/22 05:29:55;;;;;;;;;28.20;26.60;;;;;25.39;56.26;98292.63;6251600;27;97627;-66
2022/08/22 05:33:11;;;;;;;;;36.20;32.80;;;;;25.39;56.19;98290.66;6232169;27;97590;-61
2022/08/22 05:36:24;;;;;;;;;37.75;33.00;;;;;25.41;56.51;98296.66;6234805;28;97008;-59
2022/08/22 05:39:30;;;;;;;;;37.00;33.00;;;;;25.43;56.36;98296.31;6233849;27;97480;-64
2022/08/22 05:42:37;;;;;;;;;34.80;31.40;;;;;25.45;56.55;98305.91;6247866;27;97179;-60
2022/08/22 05:45:46;;;;;;;;;43.75;36.50;;;;;25.46;56.24;98303.94;6240925;27;97255;-58
2022/08/22 05:48:56;;;;;;;;;34.80;32.20;;;;;25.46;56.21;98309.47;6253735;27;98821;-60
2022/08/22 05:52:09;;;;;;;;;30.00;29.00;;;;;25.49;56.32;98314.31;6244523;27;96960;-58
2022/08/22 05:55:24;;;;;;;;;34.60;31.00;;;;;25.51;56.43;98312.00;6242388;27;97396;-59
2022/08/22 05:58:48;;;;;;;;;45.00;38.50;;;;;25.54;56.44;98321.59;6237843;27;97488;-61
2022/08/22 06:02:02;;;;;;;;;42.00;36.40;;;;;25.58;56.65;98322.56;6238788;27;97129;-61
2022/08/22 06:05:09;;;;;;;;;39.25;34.50;;;;;25.61;56.53;98319.16;6252472;27;96622;-60
2022/08/22 06:08:25;;;;;;;;;39.00;34.00;;;;;25.63;56.59;98308.59;6238155;27;97161;-60
2022/08/22 06:11:34;;;;;;;;;38.00;33.25;;;;;25.71;56.44;98319.56;6237842;27;96880;-61
2022/08/22 06:14:45;;;;;;;;;40.00;34.00;;;;;25.75;56.30;98323.28;6237370;27;99862;-61
2022/08/22 06:17:51;;;;;;;;;34.00;32.00;;;;;25.79;56.16;98324.25;6237414;27;96634;-60
2022/08/22 06:20:58;;;;;;;;;36.00;33.00;;;;;25.81;56.11;98326.66;6239275;27;97418;-61
2022/08/22 06:24:04;;;;;;;;;30.60;28.00;;;;;25.84;56.29;98315.75;6239097;27;97098;-59
2022/08/22 06:27:12;;;;;;;;;28.60;26.20;;;;;25.88;56.30;98319.47;6252829;27;97819;-60
2022/08/22 06:30:19;;;;;;;;;26.75;26.00;;;;;25.95;56.35;98318.13;6242038;27;96881;-62
2022/08/22 06:33:26;;;;;;;;;34.00;31.00;;;;;25.99;55.89;98324.59;6239284;28;97279;-62
2022/08/22 06:36:34;;;;;;;;;28.80;28.60;;;;;25.90;55.84;98315.56;6238387;27;100299;-62
2022/08/22 06:39:42;;;;;;;;;30.20;29.00;;;;;26.08;55.48;98337.19;6244583;27;96818;-61
2022/08/22 06:42:50;;;;;;;;;28.00;27.50;;;;;26.13;55.33;98334.22;6239327;28;96725;-60
2022/08/22 06:45:55;;;;;;;;;24.60;24.00;;;;;26.17;55.54;98332.41;6242219;27;97140;-59
2022/08/22 06:49:00;;;;;;;;;35.00;32.00;;;;;26.24;55.44;98337.44;6262383;27;96732;-62
2022/08/22 06:52:07;;;;;;;;;32.20;30.00;;;;;26.29;55.55;98331.72;6264553;27;97172;-63
2022/08/22 06:55:11;;;;;;;;;30.00;30.00;;;;;26.32;55.24;98330.22;6250609;27;97181;-61
2022/08/22 06:58:18;;;;;;;;;36.00;32.75;;;;;26.34;55.24;98337.00;6245854;27;96728;-60
2022/08/22 07:01:26;;;;;;;;;37.00;32.00;;;;;26.36;55.04;98340.25;6251548;27;97107;-61
2022/08/22 07:04:30;;;;;;;;;37.40;33.20;;;;;26.28;54.91;98324.56;6263077;27;96862;-62
2022/08/22 07:07:36;;;;;;;;;28.20;26.20;;;;;26.40;55.03;98343.13;6251558;27;96948;-61
2022/08/22 07:10:41;;;;;;;;;34.50;31.25;;;;;26.41;54.67;98350.28;6264015;27;97396;-59
2022/08/22 07:13:55;;;;;;;;;38.00;33.00;;;;;26.40;54.61;98349.47;6263640;27;97421;-62
2022/08/22 07:17:03;;;;;;;;;43.00;37.40;;;;;26.42;55.13;98357.44;6263211;27;97020;-60
2022/08/22 07:20:18;;;;;;;;;32.00;30.00;;;;;26.42;54.84;98360.19;6262586;27;97150;-60
2022/08/22 07:23:30;;;;;;;;;41.00;35.00;;;;;26.41;54.82;98353.03;6262003;27;97121;-58
2022/08/22 07:26:43;;;;;;;;;37.60;33.60;;;;;26.39;54.83;98360.88;6262821;27;96698;-63
2022/08/22 07:30:00;;;;;;;;;38.60;34.40;;;;;26.41;55.02;98355.81;6261846;27;96792;-60
2022/08/22 07:33:19;;;;;;;;;45.00;38.80;;;;;26.41;54.68;98359.38;6252115;27;97340;-59
2022/08/22 07:36:36;;;;;;;;;38.75;33.00;;;;;26.30;54.82;98333.28;6262160;27;96811;-61
2022/08/22 07:39:50;;;;;;;;;35.60;31.20;;;;;26.45;54.77;98343.72;6262314;27;97024;-59
2022/08/22 07:43:03;;;;;;;;;35.80;32.60;;;;;26.47;54.86;98349.75;6234253;28;97989;-61
2022/08/22 07:46:18;;;;;;;;;40.60;35.00;;;;;26.49;54.72;98355.72;6242673;27;97526;-60
2022/08/22 07:49:29;;;;;;;;;35.75;32.00;;;;;26.52;54.85;98357.03;6258165;27;96888;-60
2022/08/22 07:52:41;;;;;;;;;40.00;34.25;;;;;26.56;54.71;98356.00;6249366;27;97408;-58
2022/08/22 07:55:46;;;;;;;;;33.80;31.80;;;;;26.45;54.57;98327.16;6237396;27;97439;-62
2022/08/22 07:58:56;;;;;;;;;37.75;33.25;;;;;26.58;54.40;98337.13;6237176;27;97806;-61
2022/08/22 08:02:05;;;;;;;;;35.40;31.00;;;;;26.68;54.68;98349.72;6249499;27;97609;-60
2022/08/22 08:05:13;;;;;;;;;33.00;30.00;;;;;26.73;54.88;98346.75;6234929;28;96786;-59
2022/08/22 08:08:21;;;;;;;;;30.40;29.40;;;;;26.82;54.79;98353.00;6236138;28;97244;-60
2022/08/22 08:11:28;;;;;;;;;35.75;32.00;;;;;26.89;55.13;98352.44;6236899;27;96698;-61
2022/08/22 08:14:36;;;;;;;;;40.00;35.00;;;;;26.97;54.64;98346.84;6233437;27;98120;-60
2022/08/22 08:17:40;;;;;;;;;40.33;34.33;;;;;27.06;54.30;98350.31;6234917;27;96875;-60
2022/08/22 08:20:50;;;;;;;;;39.50;34.25;;;;;27.17;54.06;98351.47;6241813;27;97283;-59
2022/08/22 08:23:54;;;;;;;;;39.50;33.25;;;;;27.26;53.81;98356.13;6250421;27;96860;-61
2022/08/22 08:30:34;;;;;;;;;32.40;29.40;;;;;27.42;53.70;98340.44;6244870;27;96652;-61
2022/08/22 08:33:40;;;;;;;;;34.50;32.00;;;;;27.44;53.98;98338.94;6237041;27;97503;-60
2022/08/22 08:36:52;;;;;;;;;28.50;27.00;;;;;27.61;53.00;98348.22;6237099;27;97814;-60
2022/08/22 08:39:59;;;;;;;;;28.00;25.00;;;;;27.55;52.74;98337.38;6252346;27;97274;-60
2022/08/22 08:43:28;;;;;;;;;22.60;20.60;;;;;27.62;52.85;98350.63;6250757;27;97944;-62
2022/08/22 08:46:59;;;;;;;;;32.40;30.00;;;;;27.58;52.38;98350.50;6236746;27;97457;-61
2022/08/22 08:50:17;;;;;;;;;42.50;36.00;;;;;27.58;52.51;98353.28;6236239;27;96842;-62
2022/08/22 08:53:51;;;;;;;;;32.00;28.00;;;;;27.54;52.89;98354.31;6237415;27;96949;-61
2022/08/22 08:57:06;;;;;;;;;37.75;32.00;;;;;27.53;52.81;98366.53;6236673;27;97169;-62
2022/08/22 09:00:15;;;;;;;;;36.00;31.80;;;;;27.50;52.97;98362.53;6239545;27;99564;-61
2022/08/22 09:03:42;;;;;;;;;42.00;36.00;;;;;27.47;52.76;98365.94;6237390;27;97513;-63
2022/08/22 09:07:06;;;;;;;;;32.00;28.60;;;;;27.44;52.74;98365.81;6236574;27;97499;-62
2022/08/22 09:10:30;;;;;;;;;29.40;28.40;;;;;27.42;52.89;98362.56;6236990;27;96809;-61
2022/08/22 09:13:47;;;;;;;;;29.00;25.00;;;;;27.39;52.95;98375.16;6237453;27;97848;-59
2022/08/22 09:17:19;;;;;;;;;33.20;30.00;;;;;27.35;53.77;98381.72;6234863;27;97418;-61
2022/08/22 09:20:46;;;;;;;;;33.60;31.80;;;;;27.29;53.53;98388.63;6235204;27;97137;-60
2022/08/22 09:24:20;;;;;;;;;30.00;26.00;;;;;27.22;53.80;98380.88;6236804;27;97578;-60
2022/08/22 09:27:34;;;;;;;;;34.80;31.60;;;;;27.19;53.76;98387.13;6239016;27;98113;-60
2022/08/22 09:30:52;;;;;;;;;38.20;32.80;;;;;27.15;54.35;98386.19;6250665;27;97401;-61
2022/08/22 09:34:05;;;;;;;;;29.00;24.20;;;;;27.13;54.73;98394.00;6239399;28;97247;-61
2022/08/22 09:37:19;;;;;;;;;34.75;31.50;;;;;27.10;54.69;98389.16;6240195;27;97223;-60
2022/08/22 09:40:29;;;;;;;;;37.00;33.00;;;;;27.09;54.58;98387.56;6240726;28;97427;-59
2022/08/22 09:43:40;;;;;;;;;46.20;38.00;;;;;27.04;54.55;98385.00;6240210;27;96931;-62
2022/08/22 09:47:03;;;;;;;;;34.00;30.00;;;;;27.10;55.15;98387.22;6245073;27;96688;-59
2022/08/22 09:50:13;;;;;;;;;39.20;34.40;;;;;27.12;55.23;98381.34;6264206;27;97446;-60
2022/08/22 09:53:36;;;;;;;;;31.40;30.00;;;;;27.11;55.02;98380.53;6264430;27;98025;-60
2022/08/22 09:56:54;;;;;;;;;45.00;38.00;;;;;27.10;55.05;98383.63;6254027;27;97528;-61
2022/08/22 10:00:16;;;;;;;;;38.00;33.20;;;;;27.10;55.21;98378.91;6241241;27;97238;-60
2022/08/22 10:03:52;;;;;;;;;30.60;29.40;;;;;26.93;55.36;98354.19;6250709;27;97276;-60
2022/08/22 10:07:04;;;;;;;;;20.60;18.80;;;;;27.13;55.50;98369.91;6241643;27;97299;-59
2022/08/22 10:10:29;;;;;;;;;27.00;26.00;;;;;27.14;55.47;98379.03;6238523;27;97606;-60
2022/08/22 10:13:44;;;;;;;;;36.00;32.00;;;;;27.15;55.30;98380.66;6245466;27;96662;-61
2022/08/22 10:16:59;;;;;;;;;30.75;30.00;;;;;27.21;55.46;98373.75;6241705;27;96737;-62
2022/08/22 10:20:12;;;;;;;;;21.40;21.00;;;;;27.28;55.42;98367.63;6238854;27;97436;-59
2022/08/22 10:23:23;;;;;;;;;36.40;32.00;;;;;27.37;55.69;98376.63;6237831;27;97491;-60
2022/08/22 10:26:33;;;;;;;;;21.75;20.00;;;;;27.48;55.84;98375.84;6246272;27;97474;-61
2022/08/22 10:30:03;;;;;;;;;34.40;32.00;;;;;27.61;55.35;98386.97;6245498;27;96637;-60
2022/08/22 10:33:14;;;;;;;;;30.60;28.60;;;;;27.72;55.74;98377.84;6237901;27;96994;-62
2022/08/22 10:36:31;;;;;;;;;21.00;20.00;;;;;27.86;54.68;98383.84;6237140;27;97426;-62
2022/08/22 10:39:44;;;;;;;;;25.40;23.80;;;;;28.05;55.54;98385.22;6240833;27;97753;-61
2022/08/22 10:42:55;;;;;;;;;28.00;24.50;;;;;28.30;54.95;98384.03;6239188;27;97149;-60
2022/08/22 10:46:05;;;;;;;;;21.60;18.60;;;;;28.66;54.95;98381.16;6243149;27;97498;-61
2022/08/22 10:49:24;;;;;;;;;23.75;22.75;;;;;29.14;55.54;98382.91;6252758;27;96697;-61
2022/08/22 10:52:39;;;;;;;;;22.00;20.00;;;;;29.70;54.03;98380.81;6262745;27;97942;-61
2022/08/22 10:55:46;;;;;;;;;22.20;21.00;;;;;30.36;53.52;98374.41;6258627;27;97828;-59
2022/08/22 10:59:00;;;;;;;;;28.50;27.00;;;;;30.93;50.80;98370.06;6247586;27;97720;-60
2022/08/22 11:02:44;;;;;;;;;27.40;26.00;;;;;31.41;50.02;98335.16;6239822;27;96984;-60
2022/08/22 11:05:52;;;;;;;;;31.40;28.20;;;;;32.21;50.38;98353.53;6190858;27;96779;-62
2022/08/22 11:09:08;;;;;;;;;30.00;28.00;;;;;32.56;47.30;98359.59;6237003;27;97125;-65
2022/08/22 11:12:22;;;;;;;;;31.60;27.00;;;;;32.80;45.64;98363.91;6254586;27;97542;-62
2022/08/22 11:15:54;;;;;;;;;30.00;27.00;;;;;33.06;45.30;98368.59;6260916;27;96734;-57
2022/08/22 11:19:22;;;;;;;;;28.75;27.00;;;;;33.31;44.67;98369.69;6238450;27;96442;-62
2022/08/22 11:22:34;;;;;;;;;27.60;23.60;;;;;33.65;43.90;98367.56;6237364;28;97437;-58
2022/08/22 11:25:50;;;;;;;;;28.50;26.50;;;;;33.74;43.11;98364.47;6244842;27;97168;-64
2022/08/22 11:29:25;;;;;;;;;26.00;25.00;;;;;33.71;41.83;98371.66;6238026;27;97179;-63
2022/08/22 11:32:35;;;;;;;;;31.20;29.80;;;;;33.70;42.56;98369.25;6233813;27;97500;-64
2022/08/22 11:35:43;;;;;;;;;29.60;28.20;;;;;33.78;41.84;98362.50;6247686;27;96985;-64
2022/08/22 11:39:18;;;;;;;;;26.00;22.40;;;;;33.88;41.45;98359.78;6238249;27;96936;-63
2022/08/22 11:42:30;;;;;;;;;25.75;24.50;;;;;34.05;42.54;98363.09;6219347;27;96630;-63
2022/08/22 11:45:40;;;;;;;;;31.00;28.00;;;;;34.14;40.45;98352.38;6239075;27;96982;-64
2022/08/22 11:48:54;;;;;;;;;25.00;25.00;;;;;34.25;40.51;98348.47;6236768;27;96950;-62
2022/08/22 11:52:06;;;;;;;;;28.40;26.40;;;;;34.34;39.52;98353.72;6261952;27;97209;-61
2022/08/22 11:55:21;;;;;;;;;29.00;26.50;;;;;34.43;39.93;98350.56;6243150;27;97509;-65
2022/08/22 11:58:44;;;;;;;;;28.40;26.00;;;;;34.48;40.02;98350.19;6249049;27;96757;-65
2022/08/22 12:01:52;;;;;;;;;28.00;27.00;;;;;34.49;39.31;98335.78;6237622;27;96682;-61
2022/08/22 12:05:03;;;;;;;;;30.40;27.40;;;;;34.42;39.32;98316.16;6235821;27;97752;-64
2022/08/22 12:08:13;;;;;;;;;30.00;28.00;;;;;34.52;39.41;98334.19;6235101;27;98462;-59
2022/08/22 12:11:33;;;;;;;;;27.00;25.00;;;;;34.42;39.08;98329.34;6244561;27;96599;-60
2022/08/22 12:14:45;;;;;;;;;28.00;25.20;;;;;34.40;40.47;98331.75;6236105;28;97391;-64
2022/08/22 12:18:21;;;;;;;;;29.00;26.60;;;;;34.32;39.23;98331.72;6235812;27;97776;-57
2022/08/22 12:22:11;;;;;;;;;31.00;29.00;;;;;34.15;39.95;98321.22;6236961;27;97347;-64
2022/08/22 12:25:29;;;;;;;;;26.80;24.00;;;;;33.99;39.73;98328.28;6237462;28;96865;-63
2022/08/22 12:28:43;;;;;;;;;28.50;27.00;;;;;33.94;40.24;98327.47;6249372;27;97004;-66
2022/08/22 12:32:30;;;;;;;;;27.20;25.20;;;;;33.81;39.06;98325.41;6238551;27;97092;-60
2022/08/22 12:35:47;;;;;;;;;25.25;23.25;;;;;33.69;39.66;98320.91;6237418;27;97763;-62
2022/08/22 12:39:26;;;;;;;;;28.00;27.75;;;;;33.64;39.21;98317.63;6236806;27;97512;-62
2022/08/22 12:42:58;;;;;;;;;32.50;27.50;;;;;33.67;40.44;98317.72;6236954;27;96961;-59
2022/08/22 12:46:16;;;;;;;;;28.00;26.80;;;;;33.84;40.59;98314.22;6240771;27;98010;-60
2022/08/22 12:49:37;;;;;;;;;24.00;21.40;;;;;33.99;40.68;98326.31;6257119;27;97314;-58
2022/08/22 12:52:55;;;;;;;;;27.50;26.00;;;;;34.00;39.32;98319.53;6260283;27;96714;-61
2022/08/22 12:56:15;;;;;;;;;26.00;24.00;;;;;33.94;40.07;98324.69;6252726;27;96930;-63
2022/08/22 12:59:26;;;;;;;;;28.40;26.00;;;;;33.85;39.65;98321.44;6251013;27;97762;-62
2022/08/22 13:02:34;;;;;;;;;27.00;26.75;;;;;33.85;39.88;98317.81;6237396;27;97273;-61
2022/08/22 13:05:40;;;;;;;;;25.40;23.40;;;;;33.84;39.78;98322.63;6247010;27;97103;-63
2022/08/22 13:08:45;;;;;;;;;27.00;25.00;;;;;33.85;39.62;98329.81;6237715;27;96948;-61
2022/08/22 13:11:52;;;;;;;;;26.00;24.80;;;;;33.83;39.48;98331.38;6248532;27;98385;-59
2022/08/22 13:15:12;;;;;;;;;25.40;24.40;;;;;33.87;39.64;98326.63;6234594;27;96936;-58
2022/08/22 13:18:24;;;;;;;;;20.00;20.00;;;;;34.01;39.65;98331.53;6235463;27;96795;-60
2022/08/22 13:21:38;;;;;;;;;23.67;22.00;;;;;34.04;38.28;98325.13;6237325;27;97694;-61
2022/08/22 13:24:46;;;;;;;;;25.00;23.00;;;;;34.02;38.36;98324.72;6241734;27;98414;-60
2022/08/22 13:27:57;;;;;;;;;29.80;24.60;;;;;33.92;38.46;98320.66;6234224;27;98059;-64
2022/08/22 13:31:03;;;;;;;;;22.60;21.40;;;;;33.87;39.53;98321.03;6235326;27;98902;-65
2022/08/22 13:34:18;;;;;;;;;23.00;23.00;;;;;33.90;38.89;98318.28;6235691;27;97493;-59
2022/08/22 13:37:33;;;;;;;;;22.80;21.80;;;;;33.99;38.20;98312.31;6234297;27;97297;-64
2022/08/22 13:40:38;;;;;;;;;26.80;24.00;;;;;34.02;38.28;98316.31;6254632;27;97395;-63
2022/08/22 13:44:00;;;;;;;;;24.00;22.60;;;;;34.01;37.79;98307.16;6239451;27;96625;-59
2022/08/22 13:47:07;;;;;;;;;25.00;24.60;;;;;34.00;37.80;98296.34;6237022;27;96726;-64
2022/08/22 13:50:22;;;;;;;;;26.00;24.00;;;;;34.02;38.24;98300.34;6236350;27;96863;-60
2022/08/22 13:53:36;;;;;;;;;19.40;18.60;;;;;34.07;37.61;98297.16;6246125;27;97978;-61
2022/08/22 13:56:52;;;;;;;;;22.00;21.00;;;;;34.17;38.23;98296.44;6238373;27;97216;-59
2022/08/22 14:00:07;;;;;;;;;22.40;21.00;;;;;34.19;38.70;98287.69;6235797;27;97453;-60
2022/08/22 14:03:17;;;;;;;;;21.00;20.00;;;;;34.24;38.59;98299.31;6235331;27;96630;-60
2022/08/22 14:06:39;;;;;;;;;22.50;21.00;;;;;34.14;37.55;98288.03;6247014;27;96760;-59
2022/08/22 14:09:54;;;;;;;;;21.40;20.40;;;;;34.03;37.94;98289.97;6249794;27;96970;-60
2022/08/22 14:13:31;;;;;;;;;21.00;20.00;;;;;33.94;38.76;98281.94;6240978;27;97465;-60
2022/08/22 14:16:45;;;;;;;;;21.40;20.00;;;;;33.86;38.98;98285.88;6227982;27;97683;-58
2022/08/22 14:19:56;;;;;;;;;21.00;20.00;;;;;33.76;38.46;98281.03;6256674;27;98382;-60
2022/08/22 14:23:09;;;;;;;;;19.40;19.00;;;;;33.58;38.27;98288.44;6242521;27;97692;-62
2022/08/22 14:26:26;;;;;;;;;20.40;20.20;;;;;33.37;38.16;98294.69;6257713;27;97408;-63
2022/08/22 14:29:44;;;;;;;;;23.00;23.00;;;;;33.09;38.65;98278.44;6239061;27;97215;-62
2022/08/22 14:32:56;;;;;;;;;22.40;22.00;;;;;33.03;38.66;98288.38;6237695;28;96747;-60
2022/08/22 14:36:10;;;;;;;;;23.40;22.60;;;;;32.91;39.09;98297.00;6238850;27;97376;-61
2022/08/22 14:39:26;;;;;;;;;24.25;22.00;;;;;32.62;39.71;98263.19;6243413;27;96283;-60
2022/08/22 14:42:40;;;;;;;;;22.50;21.00;;;;;32.70;39.48;98294.00;6238725;27;97387;-59
2022/08/22 14:45:56;;;;;;;;;24.60;23.60;;;;;32.55;40.10;98291.00;6244034;27;97778;-65
2022/08/22 14:49:20;;;;;;;;;21.60;21.00;;;;;32.44;41.27;98287.31;6242857;27;97512;-59
2022/08/22 14:52:33;;;;;;;;;22.00;19.80;;;;;32.33;42.75;98283.59;6238768;27;97581;-56
2022/08/22 14:55:40;;;;;;;;;25.00;23.00;;;;;32.21;43.08;98289.41;6243909;27;98782;-62
2022/08/22 14:58:49;;;;;;;;;23.40;21.00;;;;;32.09;43.54;98286.84;6251128;27;97352;-64
2022/08/22 15:01:56;;;;;;;;;22.40;20.40;;;;;32.00;43.85;98284.34;6249535;27;98057;-58
2022/08/22 15:05:13;;;;;;;;;23.60;21.00;;;;;31.92;44.20;98282.59;6246235;27;97177;-58